Terminal Aerodrome Forecast
Issued by NWS Northern Indiana

Home | Current Version | Previous Version | Graphics & Text | Print | Product List | Glossary On
Versions: 1 2 3 4 5 6 7 8 9 10 11 12 13 14 15 16 17 18 19 20
000
FTUS43 KIWX 160900 AAC
TAFFWA
TAF AMD
KFWA 160901Z 1609/1706 36006KT 2SM BR BKN005
     FM161100 34003KT 3SM BR BKN009
     FM161300 35005KT P6SM SCT008 BKN015
     FM161500 33006KT P6SM SCT035=

USA.gov is the U.S. government's official web portal to all federal, state and local government web resources and services.